Clontarf, Minnesota
Current Conditions -  °F | °C
As of 10:54 AM on Wednesday 22 Oct 2014 (Local Time) from KBBB Reporting Station
Scattered Clouds Scattered Clouds  
Wind Chill: 55°   Ceiling: Unl
Heat Index: 55°   Visibility: 10mi
Dew Point: 43°   Wind: 18mph
Humidity: 63%   Direction: 190°S
Pressure: 29.99"   Gusts: 29mph
Location:  45.38°N, 95.68°W
Report Text: KBBB 221554Z AUTO 19016G25KT 10SM SCT090 13/06 A2999 RMK AO2
Loading
Personal Weather Stations






























Interactive Weather Map
Tropical Storm Tracking
New forecast layout! Learn more

10-Day Weather Forecast

Advertisements
Track Severe Weather on mobile